Port Hope, MI

8:00 AM EDT on July 30, 2014 (GMT -0400)
Oscoda-Wurtsmith (KOSC) Elev 633 ft | 44.45 °N, 83.39 °W | Change Station

Current weather conditions updated 6 minutes ago

Clear
Clear
54 °F
Feels Like 54 °F
N
6
Wind Variable Wind from NW

Today is forecast to be Cooler than yesterday.

Today
High -- | Low -- °F
--% Chance of Precip.
Yesterday
High -- | Low -- °F
Precip. -- in
6:17 AM 8:57 PM
Waxing Crescent, 11% visible
Pressure 29.97 in
Visibility 10.0 miles
Clouds Clear
Dew Point 52 °F
Humidity 93%
Rainfall 0.00 in
Snow Depth Not available.
UV 1 out of 12
Pollen 6.70 out of 12
Ozone Good
PM2.5 Good
Flu Activity Not available.
METAR KOSC 301154Z AUTO 32005KT 10SM CLR 12/11 A2997 RMK AO2 T01210110

More Conditions Fewer Conditions

Pressure 29.97 in
Visibility 10.0 miles
Clouds Clear
Dew Point 52 °F
Humidity 93%
Rainfall 0.00 in
Snow Depth Not available.
UV 1 out of 12
Pollen 6.70 out of 12
Ozone Good
PM2.5 Good
Flu Activity Not available.
METAR KOSC 301154Z AUTO 32005KT 10SM CLR 12/11 A2997 RMK AO2 T01210110

More Conditions Fewer Conditions

10-Day Weather Forecast

Almanac

Astronomy

Jul. 30, 2014 Rise Set
Actual Time 6:17 AM EDT 8:57 PM EDT
Civil Twilight 5:44 AM EDT 9:30 PM EDT
Nautical Twilight 5:02 AM EDT 10:11 PM EDT
Astronomical Twilight 4:14 AM EDT 10:59 PM EDT
Moon 9:56 AM EDT 10:29 PM EDT
Length of Visible Light 15h 46m
Length of Day
14h 39m
Tomorrow will be 2m 15s shorter.
Waxing Crescent, 11% of the Moon is Illuminated
Today
Waxing Crescent
Aug 3
First Quarter
Aug 10
Full
Aug 17
Last Quarter
Aug 25
New

Today's Extremes

State Highs State Lows

Community

WunderPhotos

Upload Photos

1,739,047 photos uploaded!

Nearby

Air Quality

  Air Quality AQ Index Pollutant
Yesterday Good
PM2.5
Yesterday Good
OZONE
Current Good
PM2.5
Current Good
OZONE
Wednesday Good
OZONE
Wednesday Good
PM2.5
Thursday Good
OZONE
Thursday Good
PM2.5

Snow Depth

Station Depth Elevation
No new snow has been reported.

Earthquake Activity

City Distance Mag. Time & Date
No recent earthquake activity has been reported nearby.
Minimum magnitude displayed is 2.5.

Coastal Water Temperatures

Place Temperature
Harbor Beach, MI 64.9 °F

Nearby Weather Stations

Station Location Temp. Windchill Dew Point Humidity Wind Precip. Elev Updated Type
Scotthaven, Port Hope, MI 61.3 °F - 61 °F 98% North  at  3.1 mph 0.00 in / hr 565 ft 8:00 AM EDT Rapid Fire
MARITIME , Mullett Lake, MI 50 °F 44 °F - - NE  at  17 mph 0.00 in / hr 577 ft 7:00 AM EDT MADIS

Show More Stations Show Fewer Stations